Impala Barranquilla — C0BAQ — position and weather

sailwx.info

Track history (hours):
 
Tides and Currents Weather Stations Pressure Air Temp Water Temp Dewpoint Dewpoint Depression Visibility Wind Speed Wind Dir Waves Ship Positions

Impala Barranquilla

Last reported at 2017-Nov-19 00:38 UTC. Time now 2017-Nov-24 03:53 UTC.
Position N 10°17' W 075°31'.

Length 31 m.

Type: Tug. MMSI: 730151795.

Date/timePositionNaut miles runAvg speedWind from/ knotsBaromVisibWave heightAir tempDewpointWater temp
2017-Nov-19 00:38N 10°17' W 075°31'5 4.9
2017-Nov-18 23:33N 10°12' W 075°31'  
2017-Nov-12 10:57N 10°09' W 075°30'2 4.7
2017-Nov-12 10:30N 10°11' W 075°31'5 0.5
2017-Nov-12 00:42N 10°16' W 075°31'0 0.0
2017-Nov-12 00:29N 10°16' W 075°31'0 0.0
2017-Nov-12 00:00N 10°16' W 075°31'0 0.0
2017-Nov-11 23:30N 10°16' W 075°31'1 2.7
2017-Nov-11 23:00N 10°17' W 075°31'2 3.3
2017-Nov-11 22:30N 10°19' W 075°32'1 2.4
2017-Nov-11 22:00N 10°18' W 075°32'0 0.6
2017-Nov-11 21:30N 10°18' W 075°33'0 0.4
2017-Nov-11 21:00N 10°18' W 075°33'2 3.7
2017-Nov-11 20:30N 10°18' W 075°31'0 0.1
2017-Nov-11 20:00N 10°18' W 075°31'0 0.0
2017-Nov-11 19:30N 10°18' W 075°31'0 0.0
2017-Nov-11 19:00N 10°18' W 075°31'0 0.0
2017-Nov-11 18:30N 10°18' W 075°31'0 0.0
2017-Nov-11 18:00N 10°18' W 075°31'0 0.0
2017-Nov-11 17:30N 10°18' W 075°31'0 0.0
2017-Nov-11 17:00N 10°18' W 075°31'0 0.0
2017-Nov-11 16:30N 10°18' W 075°31'0 0.0
2017-Nov-11 16:00N 10°18' W 075°31'0 0.0
2017-Nov-11 15:30N 10°18' W 075°31'0 0.0
2017-Nov-11 15:00N 10°18' W 075°31'0 0.0
2017-Nov-11 14:30N 10°18' W 075°31'0 0.0
2017-Nov-11 14:00N 10°18' W 075°31'0 0.0
2017-Nov-11 13:29N 10°18' W 075°31'0 0.0
2017-Nov-11 13:00N 10°18' W 075°31'1 2.9
2017-Nov-11 12:30N 10°19' W 075°32'3 6.2
2017-Nov-11 11:59N 10°16' W 075°31'59 3.9
2017-Nov-10 20:53N 10°53' W 074°44'0 0.0
2017-Nov-10 20:30N 10°53' W 074°44'0 0.0
2017-Nov-10 20:00N 10°53' W 074°44'0 0.0
2017-Nov-10 19:30N 10°53' W 074°44'0 0.0
2017-Nov-10 19:00N 10°53' W 074°44'0 0.0
2017-Nov-10 18:30N 10°53' W 074°44'0 0.0
2017-Nov-10 18:00N 10°53' W 074°44'0 0.0
2017-Nov-10 17:30N 10°53' W 074°44'0 0.0
2017-Nov-10 17:00N 10°53' W 074°44'0 0.0
2017-Nov-10 16:30N 10°53' W 074°44'0 0.0
2017-Nov-10 16:00N 10°53' W 074°44'0 0.0
2017-Nov-10 15:30N 10°53' W 074°44'0 0.0
2017-Nov-10 15:00N 10°53' W 074°44'0 0.0
2017-Nov-10 14:30N 10°53' W 074°44'0 0.0
2017-Nov-10 14:00N 10°53' W 074°44'0 0.0
2017-Nov-10 13:30N 10°53' W 074°44'0 0.0
2017-Nov-10 13:00N 10°53' W 074°44'0 0.0
2017-Nov-10 12:30N 10°53' W 074°44'0 0.0
2017-Nov-10 12:00N 10°53' W 074°44'0 0.0
2017-Nov-10 11:30N 10°53' W 074°44'0 0.0
2017-Nov-10 11:00N 10°53' W 074°44'0 0.0
2017-Nov-10 10:30N 10°53' W 074°44'0 0.0
2017-Nov-10 10:00N 10°53' W 074°44'0 0.0
2017-Nov-10 09:30N 10°53' W 074°44'0 0.0
2017-Nov-10 08:07N 10°53' W 074°44'0 0.0
2017-Nov-10 08:00N 10°53' W 074°44'  
Track history (hours):
 
Tides and Currents Weather Stations Pressure Air Temp Water Temp Dewpoint Dewpoint Depression Visibility Wind Speed Wind Dir Waves Ship Positions

Impala Barranquilla

Last reported at 2017-Nov-19 00:38 UTC. Time now 2017-Nov-24 03:53 UTC.
Position N 10°17' W 075°31'.

Length 31 m.

Type: Tug. MMSI: 730151795.

Date/timePositionNaut miles runAvg speedWind from/ knotsBaromVisibWave heightAir tempDewpointWater temp
2017-Nov-19 00:38N 10°17' W 075°31'5 4.9
2017-Nov-18 23:33N 10°12' W 075°31'  
2017-Nov-12 10:57N 10°09' W 075°30'2 4.7
2017-Nov-12 10:30N 10°11' W 075°31'5 0.5
2017-Nov-12 00:42N 10°16' W 075°31'0 0.0
2017-Nov-12 00:29N 10°16' W 075°31'0 0.0
2017-Nov-12 00:00N 10°16' W 075°31'0 0.0
2017-Nov-11 23:30N 10°16' W 075°31'1 2.7
2017-Nov-11 23:00N 10°17' W 075°31'2 3.3
2017-Nov-11 22:30N 10°19' W 075°32'1 2.4
2017-Nov-11 22:00N 10°18' W 075°32'0 0.6
2017-Nov-11 21:30N 10°18' W 075°33'0 0.4
2017-Nov-11 21:00N 10°18' W 075°33'2 3.7
2017-Nov-11 20:30N 10°18' W 075°31'0 0.1
2017-Nov-11 20:00N 10°18' W 075°31'0 0.0
2017-Nov-11 19:30N 10°18' W 075°31'0 0.0
2017-Nov-11 19:00N 10°18' W 075°31'0 0.0
2017-Nov-11 18:30N 10°18' W 075°31'0 0.0
2017-Nov-11 18:00N 10°18' W 075°31'0 0.0
2017-Nov-11 17:30N 10°18' W 075°31'0 0.0
2017-Nov-11 17:00N 10°18' W 075°31'0 0.0
2017-Nov-11 16:30N 10°18' W 075°31'0 0.0
2017-Nov-11 16:00N 10°18' W 075°31'0 0.0
2017-Nov-11 15:30N 10°18' W 075°31'0 0.0
2017-Nov-11 15:00N 10°18' W 075°31'0 0.0
2017-Nov-11 14:30N 10°18' W 075°31'0 0.0
2017-Nov-11 14:00N 10°18' W 075°31'0 0.0
2017-Nov-11 13:29N 10°18' W 075°31'0 0.0
2017-Nov-11 13:00N 10°18' W 075°31'1 2.9
2017-Nov-11 12:30N 10°19' W 075°32'3 6.2
2017-Nov-11 11:59N 10°16' W 075°31'59 3.9
2017-Nov-10 20:53N 10°53' W 074°44'0 0.0
2017-Nov-10 20:30N 10°53' W 074°44'0 0.0
2017-Nov-10 20:00N 10°53' W 074°44'0 0.0
2017-Nov-10 19:30N 10°53' W 074°44'0 0.0
2017-Nov-10 19:00N 10°53' W 074°44'0 0.0
2017-Nov-10 18:30N 10°53' W 074°44'0 0.0
2017-Nov-10 18:00N 10°53' W 074°44'0 0.0
2017-Nov-10 17:30N 10°53' W 074°44'0 0.0
2017-Nov-10 17:00N 10°53' W 074°44'0 0.0
2017-Nov-10 16:30N 10°53' W 074°44'0 0.0
2017-Nov-10 16:00N 10°53' W 074°44'0 0.0
2017-Nov-10 15:30N 10°53' W 074°44'0 0.0
2017-Nov-10 15:00N 10°53' W 074°44'0 0.0
2017-Nov-10 14:30N 10°53' W 074°44'0 0.0
2017-Nov-10 14:00N 10°53' W 074°44'0 0.0
2017-Nov-10 13:30N 10°53' W 074°44'0 0.0
2017-Nov-10 13:00N 10°53' W 074°44'0 0.0
2017-Nov-10 12:30N 10°53' W 074°44'0 0.0
2017-Nov-10 12:00N 10°53' W 074°44'0 0.0
2017-Nov-10 11:30N 10°53' W 074°44'0 0.0
2017-Nov-10 11:00N 10°53' W 074°44'0 0.0
2017-Nov-10 10:30N 10°53' W 074°44'0 0.0
2017-Nov-10 10:00N 10°53' W 074°44'0 0.0
2017-Nov-10 09:30N 10°53' W 074°44'0 0.0
2017-Nov-10 08:07N 10°53' W 074°44'0 0.0
2017-Nov-10 08:00N 10°53' W 074°44'  

Dump ship's entire track history